Time;durP1;ratioP1;P1;durP2;ratioP2;P2;SDS_P1;SDS_P2;PMS_P1;PMS_P2;Temp;Humidity;BMP_temperature;BMP_pressure;BME280_temperature;BME280_humidity;BME280_pressure;Samples;Min_cycle;Max_cycle;Signal;HPM_P1;HPM_P2
2023/09/07 00:00:17;;;;;;;6.68;3.53;;;17.40;99.90;;;;;;5155309;27;20050;-26
2023/09/07 00:02:43;;;;;;;6.78;3.72;;;17.30;99.90;;;;;;5156509;27;20507;-26
2023/09/07 00:05:09;;;;;;;7.95;4.20;;;17.20;99.90;;;;;;5155846;27;20035;-26
2023/09/07 00:07:35;;;;;;;6.65;4.00;;;17.20;99.90;;;;;;5155651;27;20043;-26
2023/09/07 00:10:01;;;;;;;6.60;4.13;;;17.00;99.90;;;;;;5156117;27;20050;-26
2023/09/07 00:12:27;;;;;;;5.75;4.57;;;16.90;99.90;;;;;;5156345;27;20050;-26
2023/09/07 00:14:54;;;;;;;6.22;4.55;;;16.70;99.90;;;;;;5155038;27;20137;-26
2023/09/07 00:17:20;;;;;;;7.93;4.40;;;16.60;99.90;;;;;;5156002;27;20047;-26
2023/09/07 00:19:48;;;;;;;7.25;4.85;;;16.40;99.90;;;;;;5155964;27;20050;-26
2023/09/07 00:22:14;;;;;;;9.60;4.65;;;16.40;99.90;;;;;;5154756;27;20038;-26
2023/09/07 00:24:40;;;;;;;18.40;6.07;;;16.30;99.90;;;;;;5155663;27;20039;-26
2023/09/07 00:27:07;;;;;;;13.45;7.40;;;16.20;99.90;;;;;;5155957;27;20047;-26
2023/09/07 00:29:36;;;;;;;6.28;4.68;;;16.20;99.90;;;;;;5155739;27;20047;-26
2023/09/07 00:32:02;;;;;;;7.45;4.38;;;16.20;99.90;;;;;;5156579;27;20078;-26
2023/09/07 00:34:27;;;;;;;6.28;4.45;;;16.30;99.90;;;;;;5155692;27;20090;-26
2023/09/07 00:36:53;;;;;;;7.05;4.25;;;16.40;99.90;;;;;;5155923;27;20050;-26
2023/09/07 00:39:19;;;;;;;7.20;4.03;;;16.40;99.90;;;;;;5155655;27;20046;-26
2023/09/07 00:41:44;;;;;;;5.38;4.20;;;16.50;99.90;;;;;;5154321;27;20117;-26
2023/09/07 00:44:10;;;;;;;5.28;3.75;;;16.60;99.90;;;;;;5155362;27;20507;-24
2023/09/07 00:46:36;;;;;;;7.47;4.20;;;16.70;99.90;;;;;;5154393;27;20058;-26
2023/09/07 00:49:04;;;;;;;5.53;4.05;;;16.80;99.90;;;;;;5155523;27;20133;-26
2023/09/07 00:51:30;;;;;;;6.60;4.45;;;16.90;99.90;;;;;;5154209;27;20506;-26
2023/09/07 00:53:56;;;;;;;9.60;3.90;;;17.00;99.90;;;;;;5154467;27;20187;-26
2023/09/07 00:56:23;;;;;;;6.88;3.78;;;17.00;99.90;;;;;;5155921;27;20433;-26
2023/09/07 00:58:50;;;;;;;8.63;4.30;;;17.10;99.90;;;;;;5154313;27;20106;-26
2023/09/07 01:01:16;;;;;;;9.43;4.18;;;17.20;99.90;;;;;;5154117;27;20046;-26
2023/09/07 01:03:41;;;;;;;8.60;3.92;;;17.20;99.90;;;;;;5155246;27;20039;-26
2023/09/07 01:06:24;;;;;;;7.75;3.60;;;17.30;99.90;;;;;;5153909;27;20039;-26
2023/09/07 01:08:52;;;;;;;6.63;4.63;;;17.30;99.90;;;;;;5156114;27;20061;-26
2023/09/07 01:11:26;;;;;;;6.15;4.82;;;17.40;99.90;;;;;;5155712;27;20046;-26
2023/09/07 01:13:53;;;;;;;6.18;4.28;;;17.40;99.90;;;;;;5154677;27;20042;-26
2023/09/07 01:16:20;;;;;;;6.88;3.75;;;17.50;99.90;;;;;;5155103;27;20107;-26
2023/09/07 01:18:47;;;;;;;8.43;3.97;;;17.50;99.90;;;;;;5158599;27;20381;-26
2023/09/07 01:21:13;;;;;;;11.82;5.28;;;17.50;99.90;;;;;;5158332;27;20051;-26
2023/09/07 01:23:44;;;;;;;7.18;4.63;;;17.50;99.90;;;;;;5159803;27;20420;-26
2023/09/07 01:26:11;;;;;;;5.25;3.97;;;17.60;99.90;;;;;;5159177;27;20081;-26
2023/09/07 01:28:37;;;;;;;6.97;4.50;;;17.60;99.90;;;;;;5159165;27;20141;-26
2023/09/07 01:31:04;;;;;;;8.50;4.55;;;17.60;99.90;;;;;;5159138;27;20049;-26
2023/09/07 01:33:30;;;;;;;7.80;4.10;;;17.60;99.90;;;;;;5158144;27;20045;-26
2023/09/07 01:35:55;;;;;;;5.57;3.88;;;17.60;99.90;;;;;;5158783;27;20039;-25
2023/09/07 01:38:21;;;;;;;8.25;3.85;;;17.60;99.90;;;;;;5159282;27;20043;-26
2023/09/07 01:40:47;;;;;;;8.68;4.47;;;17.50;99.90;;;;;;5157731;27;20047;-26
2023/09/07 01:43:13;;;;;;;6.85;4.60;;;17.50;99.90;;;;;;5158957;27;20090;-26
2023/09/07 01:45:39;;;;;;;5.53;4.60;;;17.50;99.90;;;;;;5158667;27;20038;-27
2023/09/07 01:48:11;;;;;;;6.05;4.55;;;17.50;99.90;;;;;;5157699;27;20061;-26
2023/09/07 01:50:37;;;;;;;8.70;4.30;;;17.50;99.90;;;;;;5159048;27;20369;-26
2023/09/07 01:53:04;;;;;;;10.63;4.90;;;17.40;99.90;;;;;;5158667;27;20129;-26
2023/09/07 01:55:30;;;;;;;7.35;5.00;;;17.40;99.90;;;;;;5159250;27;20047;-26
2023/09/07 01:57:57;;;;;;;7.03;5.20;;;17.30;99.90;;;;;;5157587;27;20046;-26
2023/09/07 02:00:22;;;;;;;6.57;4.80;;;17.30;99.90;;;;;;5158719;27;20088;-26
2023/09/07 02:02:48;;;;;;;9.68;5.25;;;17.20;99.90;;;;;;5158452;27;20055;-26
2023/09/07 02:05:14;;;;;;;8.98;4.53;;;17.10;99.90;;;;;;5158437;27;20038;-26
2023/09/07 02:07:39;;;;;;;7.72;5.22;;;17.00;99.90;;;;;;5158498;27;20468;-26
2023/09/07 02:10:06;;;;;;;7.82;4.57;;;17.00;99.90;;;;;;5158491;27;20050;-26
2023/09/07 02:12:31;;;;;;;9.02;5.30;;;16.90;99.90;;;;;;5158401;27;20381;-26
2023/09/07 02:15:01;;;;;;;8.07;5.20;;;16.80;99.90;;;;;;5158342;27;20469;-26
2023/09/07 02:17:26;;;;;;;8.48;5.25;;;16.80;99.90;;;;;;5159096;27;20470;-26
2023/09/07 02:19:52;;;;;;;9.57;5.38;;;16.70;99.90;;;;;;5158585;27;20043;-26
2023/09/07 02:22:18;;;;;;;6.95;5.10;;;16.60;99.90;;;;;;5157847;27;20054;-26
2023/09/07 02:24:43;;;;;;;8.82;5.45;;;16.50;99.90;;;;;;5158072;27;20085;-26
2023/09/07 02:27:09;;;;;;;7.63;5.68;;;16.50;99.90;;;;;;5158080;27;20051;-26
2023/09/07 02:29:35;;;;;;;9.15;5.60;;;16.40;99.90;;;;;;5157163;27;20110;-26
2023/09/07 02:32:00;;;;;;;8.60;5.50;;;16.30;99.90;;;;;;5157966;27;20050;-26
2023/09/07 02:34:26;;;;;;;9.07;5.55;;;16.20;99.90;;;;;;5156902;27;20043;-26
2023/09/07 02:36:52;;;;;;;9.20;6.18;;;16.10;99.90;;;;;;5157573;27;20042;-26
2023/09/07 02:39:18;;;;;;;11.63;5.97;;;16.00;99.90;;;;;;5158418;27;20110;-26
2023/09/07 02:41:45;;;;;;;9.35;6.47;;;15.90;99.90;;;;;;5157719;27;20055;-26
2023/09/07 02:44:11;;;;;;;6.72;6.05;;;15.90;99.90;;;;;;5156468;27;20476;-25
2023/09/07 02:46:36;;;;;;;9.07;5.65;;;15.80;99.90;;;;;;5157802;27;20107;-27
2023/09/07 02:49:03;;;;;;;8.40;6.43;;;15.90;99.90;;;;;;5139413;27;20072;-27
2023/09/07 02:51:28;;;;;;;9.88;6.53;;;15.80;99.90;;;;;;5157636;27;20050;-26
2023/09/07 02:53:57;;;;;;;9.27;6.95;;;15.90;99.90;;;;;;5156588;27;20047;-26
2023/09/07 02:56:23;;;;;;;9.93;7.40;;;15.80;99.90;;;;;;5140105;27;20050;-26
2023/09/07 02:58:48;;;;;;;9.45;6.95;;;15.90;99.90;;;;;;5139250;27;20122;-26
2023/09/07 03:01:17;;;;;;;11.18;6.88;;;15.90;99.90;;;;;;5156870;27;20149;-26
2023/09/07 03:03:43;;;;;;;11.00;6.88;;;15.90;99.90;;;;;;5157055;27;20404;-26
2023/09/07 03:06:13;;;;;;;10.35;6.55;;;16.00;99.90;;;;;;5157800;27;20034;-26
2023/09/07 03:08:43;;;;;;;7.07;6.38;;;16.00;99.90;;;;;;5122482;27;20042;-26
2023/09/07 03:11:09;;;;;;;11.80;7.18;;;16.00;99.90;;;;;;5157719;27;20043;-26
2023/09/07 03:13:35;;;;;;;8.55;6.72;;;16.00;99.90;;;;;;5157134;27;20087;-25
2023/09/07 03:16:02;;;;;;;7.65;6.40;;;16.00;99.90;;;;;;5155906;27;20074;-25
2023/09/07 03:18:28;;;;;;;8.80;6.43;;;15.90;99.90;;;;;;5157006;27;20043;-25
2023/09/07 03:20:57;;;;;;;11.82;7.45;;;15.90;99.90;;;;;;5156673;27;20492;-26
2023/09/07 03:23:23;;;;;;;12.07;7.22;;;15.90;99.90;;;;;;5157227;27;20121;-25
2023/09/07 03:25:49;;;;;;;10.65;6.97;;;15.90;99.90;;;;;;5156830;27;20125;-25
2023/09/07 03:28:15;;;;;;;9.93;7.38;;;15.80;99.90;;;;;;5156875;27;20046;-25
2023/09/07 03:30:40;;;;;;;9.38;7.28;;;15.80;99.90;;;;;;5157692;27;20039;-25
2023/09/07 03:33:06;;;;;;;9.40;7.35;;;15.80;99.90;;;;;;5156869;27;20421;-25
2023/09/07 03:35:32;;;;;;;9.65;7.93;;;15.80;99.90;;;;;;5156693;27;20117;-25
2023/09/07 03:37:58;;;;;;;9.05;8.15;;;15.70;99.90;;;;;;5155717;27;20082;-26
2023/09/07 03:40:23;;;;;;;9.48;7.47;;;15.70;99.90;;;;;;5156516;27;20459;-26
2023/09/07 03:42:50;;;;;;;9.07;7.35;;;15.70;99.90;;;;;;5155817;27;20123;-25
2023/09/07 03:45:16;;;;;;;11.13;7.88;;;15.60;99.90;;;;;;5156408;27;20043;-26
2023/09/07 03:47:42;;;;;;;13.10;8.35;;;15.60;99.90;;;;;;5155264;27;20559;-26
2023/09/07 03:50:08;;;;;;;11.60;7.55;;;15.60;99.90;;;;;;5155137;27;20043;-25
2023/09/07 03:52:34;;;;;;;11.40;8.30;;;15.60;99.90;;;;;;5156399;27;20090;-25
2023/09/07 03:55:00;;;;;;;10.02;8.27;;;15.50;99.90;;;;;;5155671;27;20047;-25
2023/09/07 03:57:27;;;;;;;13.80;8.55;;;15.50;99.90;;;;;;5156901;27;20372;-25
2023/09/07 03:59:55;;;;;;;9.80;8.63;;;15.60;99.90;;;;;;5138924;27;20047;-25
2023/09/07 04:02:21;;;;;;;9.23;7.88;;;15.50;99.90;;;;;;5121895;27;20353;-25
2023/09/07 04:04:51;;;;;;;9.32;8.32;;;15.60;99.90;;;;;;5137622;27;20495;-25
2023/09/07 04:07:17;;;;;;;10.10;8.60;;;15.60;99.90;;;;;;5156060;27;20043;-26
2023/09/07 04:09:44;;;;;;;10.77;8.45;;;15.60;99.90;;;;;;5137761;27;20049;-25
2023/09/07 04:12:10;;;;;;;9.48;8.30;;;15.60;99.90;;;;;;5154751;27;20038;-25
2023/09/07 04:14:36;;;;;;;10.95;7.55;;;15.70;99.90;;;;;;5154941;27;20088;-24
2023/09/07 04:17:01;;;;;;;9.23;8.30;;;15.70;99.90;;;;;;5120332;27;20050;-25
2023/09/07 04:19:27;;;;;;;14.82;8.13;;;15.70;99.90;;;;;;5155901;27;20046;-25
2023/09/07 04:21:53;;;;;;;11.75;8.27;;;15.70;99.90;;;;;;5156159;27;20047;-25
2023/09/07 04:24:19;;;;;;;12.02;8.32;;;15.60;99.90;;;;;;5155752;27;20548;-25
2023/09/07 04:26:45;;;;;;;8.88;7.30;;;15.70;99.90;;;;;;5154493;27;20079;-25
2023/09/07 04:29:12;;;;;;;10.65;7.72;;;15.60;99.90;;;;;;5154553;27;20507;-25
2023/09/07 04:31:38;;;;;;;12.15;8.77;;;15.60;99.90;;;;;;5154729;27;20523;-25
2023/09/07 04:34:04;;;;;;;13.10;8.45;;;15.60;99.90;;;;;;5155735;27;20171;-24
2023/09/07 04:36:30;;;;;;;13.45;8.18;;;15.50;99.90;;;;;;5154506;27;20384;-25
2023/09/07 04:38:55;;;;;;;9.77;8.70;;;15.50;99.90;;;;;;5155618;27;20050;-26
2023/09/07 04:41:21;;;;;;;10.43;9.32;;;15.50;99.90;;;;;;5155501;27;20440;-26
2023/09/07 04:43:47;;;;;;;10.43;8.07;;;15.40;99.90;;;;;;5155827;27;20046;-25
2023/09/07 04:46:14;;;;;;;12.88;8.75;;;15.40;99.90;;;;;;5136649;27;20065;-24
2023/09/07 04:48:41;;;;;;;10.00;7.70;;;15.50;99.90;;;;;;5156091;27;20086;-24
2023/09/07 04:51:09;;;;;;;11.63;8.52;;;15.40;99.90;;;;;;5155428;27;20065;-24
2023/09/07 04:53:36;;;;;;;11.10;8.30;;;15.50;99.90;;;;;;5155015;27;20046;-26
2023/09/07 04:56:03;;;;;;;10.13;8.32;;;15.50;99.90;;;;;;5137112;27;20476;-25
2023/09/07 04:58:29;;;;;;;10.32;8.43;;;15.50;99.90;;;;;;5155921;27;20042;-25
2023/09/07 05:01:04;;;;;;;10.50;8.55;;;15.50;99.90;;;;;;5154103;27;20438;-25
2023/09/07 05:03:30;;;;;;;14.57;8.63;;;15.60;99.90;;;;;;5155658;27;20042;-25
2023/09/07 05:05:56;;;;;;;8.68;7.78;;;15.60;99.90;;;;;;5154325;27;20499;-25
2023/09/07 05:08:24;;;;;;;13.07;8.50;;;15.50;99.90;;;;;;5136835;27;20043;-25
2023/09/07 05:10:58;;;;;;;14.13;8.77;;;15.50;99.90;;;;;;5155891;27;20078;-26
2023/09/07 05:13:25;;;;;;;9.38;8.40;;;15.50;99.90;;;;;;5155575;27;20476;-25
2023/09/07 05:15:51;;;;;;;10.90;8.40;;;15.50;99.90;;;;;;5155139;27;20050;-26
2023/09/07 05:18:18;;;;;;;13.60;9.52;;;15.50;99.90;;;;;;5155248;27;20547;-25
2023/09/07 05:20:44;;;;;;;14.70;8.82;;;15.50;99.90;;;;;;5154540;27;20052;-25
2023/09/07 05:23:12;;;;;;;11.35;8.95;;;15.50;99.90;;;;;;5155150;27;20472;-26
2023/09/07 05:25:52;;;;;;;11.30;9.00;;;15.50;99.90;;;;;;5155013;27;20050;-25
2023/09/07 05:28:19;;;;;;;13.00;9.63;;;15.50;99.90;;;;;;5156050;27;20054;-25
2023/09/07 05:30:45;;;;;;;12.57;8.55;;;15.50;99.90;;;;;;5154725;27;20047;-25
2023/09/07 05:33:11;;;;;;;12.57;9.30;;;15.50;99.90;;;;;;5154145;27;20464;-25
2023/09/07 05:35:38;;;;;;;12.30;9.02;;;15.50;99.90;;;;;;5155893;27;20066;-25
2023/09/07 05:38:05;;;;;;;11.10;8.23;;;15.50;99.90;;;;;;5155067;27;20042;-25
2023/09/07 05:40:37;;;;;;;14.38;8.68;;;15.60;99.90;;;;;;5154722;27;20480;-25
2023/09/07 05:43:04;;;;;;;12.80;9.32;;;15.60;99.90;;;;;;5155338;27;20121;-26
2023/09/07 05:45:31;;;;;;;10.70;8.38;;;15.70;99.90;;;;;;5154973;27;20107;-26
2023/09/07 05:47:57;;;;;;;9.32;8.25;;;15.80;99.90;;;;;;5154768;27;20123;-25
2023/09/07 05:50:23;;;;;;;12.70;8.63;;;15.80;99.90;;;;;;5153971;27;20043;-26
2023/09/07 05:52:49;;;;;;;10.13;8.20;;;15.90;99.90;;;;;;5154788;27;20110;-25
2023/09/07 05:55:14;;;;;;;8.57;7.47;;;16.00;99.90;;;;;;5153538;27;20050;-25
2023/09/07 05:57:40;;;;;;;12.43;8.60;;;16.10;99.90;;;;;;5154914;27;20468;-25
2023/09/07 06:00:06;;;;;;;10.88;7.10;;;16.30;99.90;;;;;;5155050;27;20054;-25
2023/09/07 06:02:32;;;;;;;11.52;7.78;;;16.40;99.90;;;;;;5154757;27;20038;-25
2023/09/07 06:04:58;;;;;;;10.07;7.22;;;16.50;99.90;;;;;;5156457;27;20121;-26
2023/09/07 06:07:24;;;;;;;8.55;7.22;;;16.60;99.90;;;;;;5158409;27;20089;-26
2023/09/07 06:09:49;;;;;;;7.85;6.78;;;16.70;99.90;;;;;;5158569;27;20110;-26
2023/09/07 06:12:15;;;;;;;12.65;6.20;;;16.80;99.90;;;;;;5158943;27;20042;-24
2023/09/07 06:14:41;;;;;;;10.65;7.10;;;16.90;99.90;;;;;;5158262;27;20110;-26
2023/09/07 06:17:06;;;;;;;7.97;6.70;;;17.10;99.90;;;;;;5158086;27;20050;-26
2023/09/07 06:19:32;;;;;;;8.80;6.55;;;17.20;99.90;;;;;;5157894;27;20107;-26
2023/09/07 06:21:58;;;;;;;8.77;5.93;;;17.30;99.90;;;;;;5123122;27;20043;-26
2023/09/07 06:24:24;;;;;;;13.02;7.18;;;17.40;99.90;;;;;;5158827;27;20369;-26
2023/09/07 06:26:49;;;;;;;8.90;6.38;;;17.50;99.90;;;;;;5156927;27;20081;-26
2023/09/07 06:29:15;;;;;;;10.13;6.65;;;17.60;99.90;;;;;;5158144;27;20134;-26
2023/09/07 06:31:41;;;;;;;6.97;6.13;;;17.80;99.90;;;;;;5158074;27;20129;-26
2023/09/07 06:34:06;;;;;;;11.60;7.10;;;17.90;99.90;;;;;;5158032;27;20050;-26
2023/09/07 06:36:32;;;;;;;12.00;6.45;;;18.00;99.90;;;;;;5139479;27;20042;-26
2023/09/07 06:38:58;;;;;;;7.30;5.97;;;18.20;99.90;;;;;;5156614;27;20397;-26
2023/09/07 06:41:24;;;;;;;9.90;6.10;;;18.30;99.90;;;;;;5157828;27;20081;-26
2023/09/07 06:43:50;;;;;;;8.75;5.93;;;18.40;99.90;;;;;;5139476;27;20043;-26
2023/09/07 06:46:16;;;;;;;8.57;6.10;;;18.50;99.90;;;;;;5157271;27;20054;-26
2023/09/07 06:48:42;;;;;;;8.57;6.15;;;18.60;99.90;;;;;;5158351;27;20047;-26
2023/09/07 06:51:09;;;;;;;13.25;6.20;;;18.70;99.90;;;;;;5156404;27;20077;-26
2023/09/07 06:53:35;;;;;;;9.27;6.10;;;18.80;99.90;;;;;;5157725;27;20058;-26
2023/09/07 06:56:02;;;;;;;7.30;5.95;;;19.00;99.90;;;;;;5156513;27;20404;-26
2023/09/07 06:58:28;;;;;;;8.70;6.43;;;19.10;99.90;;;;;;5156361;27;20039;-26
2023/09/07 07:01:00;;;;;;;8.48;6.35;;;19.20;99.90;;;;;;5157548;27;20049;-26
2023/09/07 07:03:28;;;;;;;9.50;5.28;;;19.30;99.90;;;;;;5157138;27;20623;-26
2023/09/07 07:05:54;;;;;;;9.57;5.72;;;19.40;99.90;;;;;;5157355;27;20045;-26
2023/09/07 07:08:20;;;;;;;10.25;5.30;;;19.60;99.90;;;;;;5158238;27;20161;-26
2023/09/07 07:10:45;;;;;;;10.75;5.53;;;19.70;99.90;;;;;;5138924;27;20495;-26
2023/09/07 07:13:11;;;;;;;10.00;6.00;;;19.80;96.60;;;;;;5157350;27;20088;-26
2023/09/07 07:15:37;;;;;;;9.60;5.65;;;20.00;33.00;;;;;;5155958;27;20050;-26
2023/09/07 07:18:08;;;;;;;7.28;4.75;;;20.10;1.00;;;;;;5157197;27;20081;-26
2023/09/07 07:20:41;;;;;;;8.82;5.60;;;20.20;1.00;;;;;;5157072;27;20046;-26
2023/09/07 07:23:07;;;;;;;6.32;5.07;;;20.30;1.00;;;;;;5157139;27;20050;-26
2023/09/07 07:25:34;;;;;;;6.90;4.57;;;20.40;1.00;;;;;;5156711;27;20358;-26
2023/09/07 07:28:03;;;;;;;7.35;5.03;;;20.60;1.00;;;;;;5157015;27;20085;-26
2023/09/07 07:30:29;;;;;;;8.02;4.78;;;20.70;99.90;;;;;;5155974;27;20054;-26
2023/09/07 07:32:56;;;;;;;9.88;5.22;;;20.80;99.90;;;;;;5155749;27;20047;-26
2023/09/07 07:35:22;;;;;;;11.43;4.85;;;20.90;99.90;;;;;;5156855;27;20118;-28
2023/09/07 07:37:49;;;;;;;6.97;4.72;;;21.00;99.90;;;;;;5156788;27;20053;-27
2023/09/07 07:40:15;;;;;;;8.45;4.05;;;21.20;99.90;;;;;;5155528;27;20045;-26
2023/09/07 07:42:41;;;;;;;7.15;4.13;;;21.30;99.90;;;;;;5156714;27;20129;-26
2023/09/07 07:45:08;;;;;;;10.90;4.45;;;21.40;23.30;;;;;;5157065;27;20188;-26
2023/09/07 07:47:33;;;;;;;8.15;3.90;;;21.50;1.00;;;;;;5156559;27;20151;-26
2023/09/07 07:49:59;;;;;;;9.38;3.90;;;21.60;1.00;;;;;;5156558;27;20486;-26
2023/09/07 07:52:25;;;;;;;8.48;4.35;;;21.70;1.00;;;;;;5156464;27;20047;-26
2023/09/07 07:54:51;;;;;;;8.20;3.80;;;21.90;99.90;;;;;;5156533;27;20053;-26
2023/09/07 07:57:16;;;;;;;5.50;3.50;;;21.90;99.90;;;;;;5156243;27;20039;-27
2023/09/07 07:59:42;;;;;;;10.30;3.95;;;22.10;83.50;;;;;;5157154;27;20043;-26
2023/09/07 08:02:08;;;;;;;5.60;3.10;;;22.20;20.30;;;;;;5155213;27;20046;-26
2023/09/07 08:04:34;;;;;;;7.45;3.72;;;22.20;55.30;;;;;;5156310;27;20048;-26
2023/09/07 08:07:03;;;;;;;6.13;3.67;;;22.40;1.00;;;;;;5156505;27;20058;-26
2023/09/07 08:09:32;;;;;;;7.82;3.35;;;22.40;1.00;;;;;;5156170;27;20042;-26
2023/09/07 08:12:00;;;;;;;6.85;3.67;;;22.50;99.90;;;;;;5156341;27;20047;-26
2023/09/07 08:14:26;;;;;;;7.45;3.60;;;22.60;99.90;;;;;;5155124;27;20089;-27
2023/09/07 08:16:53;;;;;;;9.25;3.60;;;22.70;99.90;;;;;;5156048;27;20082;-26
2023/09/07 08:19:19;;;;;;;6.45;3.75;;;22.80;99.90;;;;;;5138136;27;20433;-26
2023/09/07 08:21:46;;;;;;;10.43;4.15;;;22.90;73.60;;;;;;5155943;27;20046;-26
2023/09/07 08:24:12;;;;;;;7.07;3.75;;;23.00;1.00;;;;;;5155998;27;20051;-26
2023/09/07 08:26:38;;;;;;;5.57;3.88;;;23.00;1.00;;;;;;5155731;27;20117;-26
2023/09/07 08:29:05;;;;;;;7.32;3.85;;;23.10;1.00;;;;;;5155865;27;20050;-27
2023/09/07 08:31:38;;;;;;;8.40;4.60;;;23.30;1.00;;;;;;5156064;27;20054;-26
2023/09/07 08:34:09;;;;;;;9.25;4.68;;;23.40;1.00;;;;;;5155781;27;20050;-26
2023/09/07 08:36:35;;;;;;;4.00;3.45;;;23.50;1.00;;;;;;5155364;27;20396;-28
2023/09/07 08:39:07;;;;;;;6.18;4.15;;;23.60;1.00;;;;;;5155631;27;20441;-26
2023/09/07 08:41:43;;;;;;;8.30;4.15;;;23.70;99.90;;;;;;5155042;27;20057;-27
2023/09/07 08:44:19;;;;;;;6.20;3.88;;;23.80;99.90;;;;;;5137838;27;20051;-26
2023/09/07 08:46:45;;;;;;;6.13;3.65;;;24.00;99.90;;;;;;5155410;27;20051;-26
2023/09/07 08:49:12;;;;;;;4.78;3.42;;;24.10;1.00;;;;;;5155260;27;20400;-26
2023/09/07 08:51:38;;;;;;;12.95;3.70;;;24.20;99.90;;;;;;5155502;27;20095;-27
2023/09/07 08:54:05;;;;;;;10.20;3.60;;;24.20;99.90;;;;;;5154467;27;20103;-26
2023/09/07 08:56:31;;;;;;;6.10;3.47;;;24.30;43.70;;;;;;5156052;27;20074;-27
2023/09/07 08:58:57;;;;;;;8.45;3.35;;;24.40;1.00;;;;;;5155439;27;20078;-27
2023/09/07 09:01:23;;;;;;;8.70;2.97;;;24.50;1.00;;;;;;5154225;27;20045;-27
2023/09/07 09:03:50;;;;;;;6.38;3.15;;;24.70;99.90;;;;;;5155423;27;20123;-25
2023/09/07 09:06:19;;;;;;;4.50;3.05;;;;;;;;;;5155322;27;20046;-25
2023/09/07 09:08:50;;;;;;;4.45;2.65;;;25.50;1.00;;;;;;5155382;27;20042;-25
2023/09/07 09:11:17;;;;;;;6.43;2.67;;;26.60;99.90;;;;;;5155382;27;20050;-27
2023/09/07 09:13:43;;;;;;;7.88;3.33;;;28.60;99.90;;;;;;5154287;27;20046;-25
2023/09/07 09:16:10;;;;;;;5.20;2.92;;;28.60;99.90;;;;;;5154035;27;20050;-28
2023/09/07 09:18:37;;;;;;;3.17;2.10;;;29.40;15.90;;;;;;5154894;27;20046;-27
2023/09/07 09:21:04;;;;;;;8.55;3.67;;;29.90;1.00;;;;;;5155209;27;20050;-27
2023/09/07 09:23:35;;;;;;;4.28;2.72;;;30.40;1.00;;;;;;5155488;27;20490;-27
2023/09/07 09:26:03;;;;;;;4.20;2.50;;;30.70;99.90;;;;;;5155897;27;20187;-27
2023/09/07 09:28:31;;;;;;;6.95;3.15;;;30.90;99.90;;;;;;5155666;27;20053;-27
2023/09/07 09:30:58;;;;;;;6.05;2.63;;;31.00;1.00;;;;;;5137163;27;20404;-27
2023/09/07 09:33:24;;;;;;;5.15;2.65;;;31.60;1.00;;;;;;5154133;27;20046;-27
2023/09/07 09:35:52;;;;;;;5.07;2.72;;;31.80;1.00;;;;;;5155089;27;20053;-28
2023/09/07 09:38:18;;;;;;;5.90;2.70;;;31.80;1.00;;;;;;5156053;27;20396;-27
2023/09/07 09:40:45;;;;;;;6.32;3.38;;;31.90;1.00;;;;;;5157960;27;20107;-27
2023/09/07 09:43:12;;;;;;;5.07;2.67;;;32.10;1.00;;;;;;5140711;27;20078;-28
2023/09/07 09:45:39;;;;;;;4.32;2.60;;;32.30;1.00;;;;;;5157481;27;20053;-27
2023/09/07 09:48:06;;;;;;;4.25;3.38;;;32.60;1.00;;;;;;5159240;27;20086;-27
2023/09/07 09:50:37;;;;;;;5.50;2.80;;;32.70;1.00;;;;;;5158934;27;20099;-27
2023/09/07 09:53:07;;;;;;;5.63;3.08;;;32.90;1.00;;;;;;5158355;27;20437;-27
2023/09/07 09:55:36;;;;;;;4.70;2.67;;;33.10;1.00;;;;;;5140898;27;20078;-27
2023/09/07 09:58:02;;;;;;;7.32;2.60;;;32.90;1.00;;;;;;5158741;27;20054;-27
2023/09/07 10:00:30;;;;;;;4.93;2.60;;;33.00;1.00;;;;;;5158688;27;20043;-28
2023/09/07 10:03:04;;;;;;;6.30;2.60;;;33.10;1.00;;;;;;5158647;27;20054;-27
2023/09/07 10:05:31;;;;;;;7.15;2.70;;;33.20;1.00;;;;;;5158767;27;20433;-28
2023/09/07 10:08:05;;;;;;;7.20;3.28;;;33.20;1.00;;;;;;5157370;27;20043;-28
2023/09/07 10:10:36;;;;;;;5.50;2.80;;;32.90;1.00;;;;;;5159047;27;20179;-27
2023/09/07 10:13:02;;;;;;;5.20;2.67;;;32.90;1.00;;;;;;5158434;27;20038;-27
2023/09/07 10:15:28;;;;;;;4.53;3.03;;;32.90;1.00;;;;;;5157762;27;20039;-28
2023/09/07 10:18:32;;;;;;;6.07;2.78;;;33.10;1.00;;;;;;5157386;27;20130;-28
2023/09/07 10:20:58;;;;;;;4.70;2.50;;;33.30;14.30;;;;;;5146602;27;20392;-27
2023/09/07 10:23:42;;;;;;;7.88;3.03;;;33.50;28.40;;;;;;5158861;27;20043;-27
2023/09/07 10:26:21;;;;;;;11.05;3.20;;;33.50;28.90;;;;;;5158118;27;20039;-28
2023/09/07 10:28:47;;;;;;;9.18;3.10;;;33.50;45.50;;;;;;5158396;27;20511;-28
2023/09/07 10:31:18;;;;;;;6.70;3.28;;;33.70;70.50;;;;;;5158044;27;20092;-27
2023/09/07 10:33:44;;;;;;;4.88;2.67;;;33.90;77.60;;;;;;5157900;27;20499;-29
2023/09/07 10:36:22;;;;;;;4.55;2.95;;;34.00;85.50;;;;;;5157968;27;20053;-28
2023/09/07 10:38:48;;;;;;;7.10;3.03;;;34.10;74.20;;;;;;5158819;27;20086;-27
2023/09/07 10:41:13;;;;;;;5.57;3.17;;;33.90;81.60;;;;;;5157922;27;20082;-28
2023/09/07 10:43:48;;;;;;;6.90;2.58;;;33.80;85.70;;;;;;5157498;27;20043;-29
2023/09/07 10:46:14;;;;;;;4.88;3.45;;;33.70;83.40;;;;;;5157663;27;20039;-29
2023/09/07 10:48:40;;;;;;;7.20;2.70;;;33.70;93.40;;;;;;5157758;27;20043;-28
2023/09/07 10:51:06;;;;;;;6.43;2.97;;;33.90;99.90;;;;;;5157043;27;20050;-29
2023/09/07 10:53:33;;;;;;;6.85;3.08;;;34.20;99.90;;;;;;5158518;27;20042;-28
2023/09/07 10:56:02;;;;;;;4.35;2.85;;;34.20;99.90;;;;;;5157581;27;20193;-28
2023/09/07 10:58:32;;;;;;;5.13;2.75;;;34.30;99.90;;;;;;5139562;27;20046;-28
2023/09/07 11:00:58;;;;;;;4.10;2.80;;;34.30;99.90;;;;;;5157601;27;20393;-28
2023/09/07 11:03:28;;;;;;;8.35;3.03;;;34.40;99.90;;;;;;5157553;27;20071;-28
2023/09/07 11:05:59;;;;;;;4.78;3.35;;;34.70;99.90;;;;;;5157351;27;20042;-28
2023/09/07 11:08:25;;;;;;;5.75;2.80;;;34.60;99.90;;;;;;5158308;27;20366;-28
2023/09/07 11:10:54;;;;;;;3.20;2.75;;;34.40;99.90;;;;;;5157346;27;20171;-28
2023/09/07 11:13:21;;;;;;;8.20;3.20;;;34.60;99.90;;;;;;5157299;27;20049;-28
2023/09/07 11:15:46;;;;;;;7.43;3.28;;;35.00;99.90;;;;;;5156643;27;20046;-28
2023/09/07 11:18:13;;;;;;;5.70;3.03;;;35.30;99.90;;;;;;5139316;27;20065;-28
2023/09/07 11:20:39;;;;;;;4.20;2.75;;;35.50;99.90;;;;;;5156063;27;20134;-28
2023/09/07 11:23:05;;;;;;;6.45;3.00;;;35.50;99.90;;;;;;5157138;27;20125;-29
2023/09/07 11:25:38;;;;;;;4.85;2.72;;;35.40;99.90;;;;;;5156967;27;20092;-28
2023/09/07 11:28:08;;;;;;;7.40;3.05;;;35.50;99.90;;;;;;5157902;27;20039;-28
2023/09/07 11:30:34;;;;;;;6.25;2.75;;;35.40;99.90;;;;;;5157009;27;20133;-28
2023/09/07 11:33:06;;;;;;;5.82;3.03;;;35.50;99.90;;;;;;5156649;27;20396;-28
2023/09/07 11:35:32;;;;;;;;;;;35.40;99.90;;;;;;5156339;27;20085;-28
2023/09/07 11:38:00;;;;;;;8.98;3.08;;;35.20;99.90;;;;;;5156785;27;19930;-28
2023/09/07 11:40:26;;;;;;;4.05;2.67;;;35.00;99.90;;;;;;5156780;27;20039;-28
2023/09/07 11:42:52;;;;;;;5.13;2.90;;;35.10;99.90;;;;;;5156730;27;20489;-28
2023/09/07 11:45:19;;;;;;;8.23;2.40;;;35.40;99.90;;;;;;5156526;27;20038;-27
2023/09/07 11:47:47;;;;;;;7.32;2.55;;;35.30;99.90;;;;;;5156177;27;20054;-28
2023/09/07 11:50:17;;;;;;;6.15;2.33;;;35.10;99.90;;;;;;5156568;27;20057;-28
2023/09/07 11:52:43;;;;;;;3.75;2.10;;;35.10;99.90;;;;;;5156505;27;20089;-28
2023/09/07 11:55:10;;;;;;;5.80;2.50;;;35.00;99.90;;;;;;5156514;27;20082;-28
2023/09/07 11:57:36;;;;;;;5.40;2.55;;;35.10;99.90;;;;;;5157017;27;20047;-28
2023/09/07 12:00:05;;;;;;;6.00;2.70;;;35.40;99.90;;;;;;5156599;27;20500;-28
2023/09/07 12:02:30;;;;;;;7.07;3.38;;;35.40;99.90;;;;;;5154732;27;20085;-28
2023/09/07 12:04:56;;;;;;;4.72;2.45;;;35.20;99.90;;;;;;5156136;27;20088;-28
2023/09/07 12:07:22;;;;;;;5.47;2.53;;;35.10;99.90;;;;;;5156451;27;20050;-29
2023/09/07 12:09:48;;;;;;;4.88;2.45;;;35.40;99.90;;;;;;5156251;27;20043;-28
2023/09/07 12:12:14;;;;;;;5.32;2.70;;;35.50;99.90;;;;;;5137882;27;20369;-28
2023/09/07 12:14:40;;;;;;;4.03;2.88;;;35.50;99.90;;;;;;5155488;27;20095;-28
2023/09/07 12:17:05;;;;;;;6.43;2.75;;;35.60;99.90;;;;;;5156067;27;20121;-28
2023/09/07 12:19:31;;;;;;;3.65;2.58;;;35.70;99.90;;;;;;5156351;27;20107;-28
2023/09/07 12:21:57;;;;;;;5.60;2.70;;;35.80;99.90;;;;;;5154897;27;20085;-28
2023/09/07 12:24:22;;;;;;;4.75;2.63;;;35.60;99.90;;;;;;5155608;27;20046;-28
2023/09/07 12:26:48;;;;;;;6.53;2.50;;;35.50;99.90;;;;;;5155740;27;20047;-29
2023/09/07 12:29:14;;;;;;;10.80;2.83;;;35.80;99.90;;;;;;5154900;27;20433;-28
2023/09/07 12:31:40;;;;;;;4.65;2.65;;;36.00;99.90;;;;;;5155807;27;20042;-29
2023/09/07 12:34:05;;;;;;;8.00;2.58;;;36.00;99.90;;;;;;5155430;27;20135;-28
2023/09/07 12:36:31;;;;;;;6.63;2.60;;;36.10;99.90;;;;;;5155690;27;20039;-28
2023/09/07 12:39:01;;;;;;;4.60;3.22;;;36.10;99.90;;;;;;5155656;27;20053;-29
2023/09/07 12:41:33;;;;;;;4.07;2.30;;;36.00;99.90;;;;;;5155112;27;20050;-28
2023/09/07 12:43:58;;;;;;;7.93;3.25;;;35.70;99.90;;;;;;5155606;27;20120;-28